sensor_id;sensor_type;location;lat;lon;timestamp;P1;durP1;ratioP1;P2;durP2;ratioP2
75537;SDS011;64121;48.666;8.114;2022-11-25T00:01:56;8.13;;;4.45;;
75537;SDS011;64121;48.666;8.114;2022-11-25T00:04:21;11.20;;;4.18;;
75537;SDS011;64121;48.666;8.114;2022-11-25T00:06:46;9.40;;;4.85;;
75537;SDS011;64121;48.666;8.114;2022-11-25T00:09:12;8.68;;;4.40;;
75537;SDS011;64121;48.666;8.114;2022-11-25T00:11:39;7.60;;;4.25;;
75537;SDS011;64121;48.666;8.114;2022-11-25T00:14:06;10.65;;;5.97;;
75537;SDS011;64121;48.666;8.114;2022-11-25T00:16:34;12.38;;;5.97;;
75537;SDS011;64121;48.666;8.114;2022-11-25T00:19:00;11.27;;;5.07;;
75537;SDS011;64121;48.666;8.114;2022-11-25T00:21:26;11.73;;;6.18;;
75537;SDS011;64121;48.666;8.114;2022-11-25T00:23:55;9.82;;;5.72;;
75537;SDS011;64121;48.666;8.114;2022-11-25T00:26:22;9.40;;;4.63;;
75537;SDS011;64121;48.666;8.114;2022-11-25T00:28:50;9.25;;;4.93;;
75537;SDS011;64121;48.666;8.114;2022-11-25T00:31:17;8.90;;;5.47;;
75537;SDS011;64121;48.666;8.114;2022-11-25T00:33:43;7.57;;;5.00;;
75537;SDS011;64121;48.666;8.114;2022-11-25T00:36:12;7.90;;;4.38;;
75537;SDS011;64121;48.666;8.114;2022-11-25T00:38:39;11.23;;;4.43;;
75537;SDS011;64121;48.666;8.114;2022-11-25T00:41:05;8.23;;;4.25;;
75537;SDS011;64121;48.666;8.114;2022-11-25T00:43:30;8.55;;;5.05;;
75537;SDS011;64121;48.666;8.114;2022-11-25T00:45:57;9.00;;;4.18;;
75537;SDS011;64121;48.666;8.114;2022-11-25T00:48:22;5.80;;;3.67;;
75537;SDS011;64121;48.666;8.114;2022-11-25T00:50:47;7.32;;;3.45;;
75537;SDS011;64121;48.666;8.114;2022-11-25T00:53:12;6.57;;;3.38;;
75537;SDS011;64121;48.666;8.114;2022-11-25T00:55:38;5.72;;;3.00;;
75537;SDS011;64121;48.666;8.114;2022-11-25T00:58:03;7.00;;;3.95;;
75537;SDS011;64121;48.666;8.114;2022-11-25T01:00:28;5.50;;;4.10;;
75537;SDS011;64121;48.666;8.114;2022-11-25T01:02:55;10.00;;;3.88;;
75537;SDS011;64121;48.666;8.114;2022-11-25T01:05:20;7.93;;;4.03;;
75537;SDS011;64121;48.666;8.114;2022-11-25T01:07:46;5.47;;;3.42;;
75537;SDS011;64121;48.666;8.114;2022-11-25T01:10:11;9.27;;;3.90;;
75537;SDS011;64121;48.666;8.114;2022-11-25T01:12:36;6.90;;;3.75;;
75537;SDS011;64121;48.666;8.114;2022-11-25T01:15:02;9.90;;;3.92;;
75537;SDS011;64121;48.666;8.114;2022-11-25T01:17:27;6.07;;;3.70;;
75537;SDS011;64121;48.666;8.114;2022-11-25T01:19:54;7.63;;;3.97;;
75537;SDS011;64121;48.666;8.114;2022-11-25T01:22:19;6.57;;;4.20;;
75537;SDS011;64121;48.666;8.114;2022-11-25T01:24:44;8.95;;;4.78;;
75537;SDS011;64121;48.666;8.114;2022-11-25T01:27:10;7.50;;;3.40;;
75537;SDS011;64121;48.666;8.114;2022-11-25T01:29:35;8.55;;;4.38;;
75537;SDS011;64121;48.666;8.114;2022-11-25T01:32:00;6.18;;;3.97;;
75537;SDS011;64121;48.666;8.114;2022-11-25T01:34:26;6.90;;;3.78;;
75537;SDS011;64121;48.666;8.114;2022-11-25T01:36:53;7.93;;;3.72;;
75537;SDS011;64121;48.666;8.114;2022-11-25T01:39:19;7.80;;;4.03;;
75537;SDS011;64121;48.666;8.114;2022-11-25T01:41:46;6.80;;;3.95;;
75537;SDS011;64121;48.666;8.114;2022-11-25T01:44:13;5.25;;;3.60;;
75537;SDS011;64121;48.666;8.114;2022-11-25T01:49:31;5.45;;;3.33;;
75537;SDS011;64121;48.666;8.114;2022-11-25T01:52:03;7.53;;;3.35;;
75537;SDS011;64121;48.666;8.114;2022-11-25T01:54:34;4.93;;;3.38;;
75537;SDS011;64121;48.666;8.114;2022-11-25T01:57:05;6.68;;;3.83;;
75537;SDS011;64121;48.666;8.114;2022-11-25T01:59:50;4.63;;;2.47;;
75537;SDS011;64121;48.666;8.114;2022-11-25T02:02:20;4.57;;;3.10;;
75537;SDS011;64121;48.666;8.114;2022-11-25T02:04:45;7.82;;;3.47;;
75537;SDS011;64121;48.666;8.114;2022-11-25T02:07:14;6.68;;;2.60;;
75537;SDS011;64121;48.666;8.114;2022-11-25T02:09:44;4.83;;;3.17;;
75537;SDS011;64121;48.666;8.114;2022-11-25T02:12:11;5.32;;;2.60;;
75537;SDS011;64121;48.666;8.114;2022-11-25T02:14:38;6.97;;;3.20;;
75537;SDS011;64121;48.666;8.114;2022-11-25T02:17:04;4.45;;;3.15;;
75537;SDS011;64121;48.666;8.114;2022-11-25T02:19:31;5.68;;;2.88;;
75537;SDS011;64121;48.666;8.114;2022-11-25T02:22:08;6.72;;;2.53;;
75537;SDS011;64121;48.666;8.114;2022-11-25T02:24:39;6.80;;;3.30;;
75537;SDS011;64121;48.666;8.114;2022-11-25T02:27:10;6.10;;;3.13;;
75537;SDS011;64121;48.666;8.114;2022-11-25T02:29:36;5.47;;;2.80;;
75537;SDS011;64121;48.666;8.114;2022-11-25T02:32:01;4.82;;;2.67;;
75537;SDS011;64121;48.666;8.114;2022-11-25T02:34:27;7.57;;;3.38;;
75537;SDS011;64121;48.666;8.114;2022-11-25T02:36:52;6.03;;;2.80;;
75537;SDS011;64121;48.666;8.114;2022-11-25T02:39:17;6.72;;;3.08;;
75537;SDS011;64121;48.666;8.114;2022-11-25T02:41:45;6.53;;;3.10;;
75537;SDS011;64121;48.666;8.114;2022-11-25T02:44:15;6.75;;;3.00;;
75537;SDS011;64121;48.666;8.114;2022-11-25T02:46:40;6.53;;;3.15;;
75537;SDS011;64121;48.666;8.114;2022-11-25T02:49:05;5.05;;;3.22;;
75537;SDS011;64121;48.666;8.114;2022-11-25T02:51:31;7.28;;;3.38;;
75537;SDS011;64121;48.666;8.114;2022-11-25T02:53:58;5.15;;;2.80;;
75537;SDS011;64121;48.666;8.114;2022-11-25T02:56:25;7.70;;;3.38;;
75537;SDS011;64121;48.666;8.114;2022-11-25T02:58:52;5.00;;;3.30;;
75537;SDS011;64121;48.666;8.114;2022-11-25T03:01:18;6.00;;;3.30;;
75537;SDS011;64121;48.666;8.114;2022-11-25T03:03:44;6.25;;;3.58;;
75537;SDS011;64121;48.666;8.114;2022-11-25T03:06:09;4.60;;;3.20;;
75537;SDS011;64121;48.666;8.114;2022-11-25T03:08:35;4.93;;;3.10;;
75537;SDS011;64121;48.666;8.114;2022-11-25T03:11:01;4.93;;;3.03;;
75537;SDS011;64121;48.666;8.114;2022-11-25T03:13:26;4.53;;;2.80;;
75537;SDS011;64121;48.666;8.114;2022-11-25T03:15:52;4.75;;;2.67;;
75537;SDS011;64121;48.666;8.114;2022-11-25T03:18:18;6.10;;;3.40;;
75537;SDS011;64121;48.666;8.114;2022-11-25T03:20:44;6.75;;;3.35;;
75537;SDS011;64121;48.666;8.114;2022-11-25T03:23:09;5.07;;;3.13;;
75537;SDS011;64121;48.666;8.114;2022-11-25T03:25:35;5.18;;;3.15;;
75537;SDS011;64121;48.666;8.114;2022-11-25T03:28:00;5.13;;;3.90;;
75537;SDS011;64121;48.666;8.114;2022-11-25T03:30:26;6.15;;;3.33;;
75537;SDS011;64121;48.666;8.114;2022-11-25T03:32:52;4.47;;;2.72;;
75537;SDS011;64121;48.666;8.114;2022-11-25T03:35:19;5.60;;;3.03;;
75537;SDS011;64121;48.666;8.114;2022-11-25T03:37:45;4.68;;;3.00;;
75537;SDS011;64121;48.666;8.114;2022-11-25T03:40:11;5.10;;;2.85;;
75537;SDS011;64121;48.666;8.114;2022-11-25T03:42:38;5.53;;;2.60;;
75537;SDS011;64121;48.666;8.114;2022-11-25T03:45:05;5.30;;;2.70;;
75537;SDS011;64121;48.666;8.114;2022-11-25T03:47:31;4.93;;;2.63;;
75537;SDS011;64121;48.666;8.114;2022-11-25T03:49:57;8.38;;;2.75;;
75537;SDS011;64121;48.666;8.114;2022-11-25T03:52:24;6.93;;;3.10;;
75537;SDS011;64121;48.666;8.114;2022-11-25T03:54:49;4.45;;;2.28;;
75537;SDS011;64121;48.666;8.114;2022-11-25T03:57:14;3.90;;;2.80;;
75537;SDS011;64121;48.666;8.114;2022-11-25T03:59:40;5.53;;;2.63;;
75537;SDS011;64121;48.666;8.114;2022-11-25T04:02:05;5.45;;;2.47;;
75537;SDS011;64121;48.666;8.114;2022-11-25T04:04:30;6.15;;;2.55;;
75537;SDS011;64121;48.666;8.114;2022-11-25T04:06:56;5.97;;;3.20;;
75537;SDS011;64121;48.666;8.114;2022-11-25T04:09:23;6.18;;;3.13;;
75537;SDS011;64121;48.666;8.114;2022-11-25T04:11:48;3.67;;;2.40;;
75537;SDS011;64121;48.666;8.114;2022-11-25T04:14:13;5.13;;;2.45;;
75537;SDS011;64121;48.666;8.114;2022-11-25T04:16:39;4.50;;;2.10;;
75537;SDS011;64121;48.666;8.114;2022-11-25T04:19:04;5.30;;;2.25;;
75537;SDS011;64121;48.666;8.114;2022-11-25T04:21:29;4.55;;;2.53;;
75537;SDS011;64121;48.666;8.114;2022-11-25T04:23:55;5.18;;;2.45;;
75537;SDS011;64121;48.666;8.114;2022-11-25T04:26:23;4.88;;;2.38;;
75537;SDS011;64121;48.666;8.114;2022-11-25T04:28:48;5.22;;;1.98;;
75537;SDS011;64121;48.666;8.114;2022-11-25T04:31:13;4.60;;;1.98;;
75537;SDS011;64121;48.666;8.114;2022-11-25T04:33:39;6.95;;;2.63;;
75537;SDS011;64121;48.666;8.114;2022-11-25T04:36:04;3.92;;;1.98;;
75537;SDS011;64121;48.666;8.114;2022-11-25T04:38:30;5.18;;;1.85;;
75537;SDS011;64121;48.666;8.114;2022-11-25T04:40:55;4.93;;;2.05;;
75537;SDS011;64121;48.666;8.114;2022-11-25T04:43:22;4.40;;;2.20;;
75537;SDS011;64121;48.666;8.114;2022-11-25T04:45:47;11.38;;;4.00;;
75537;SDS011;64121;48.666;8.114;2022-11-25T04:48:14;8.27;;;4.40;;
75537;SDS011;64121;48.666;8.114;2022-11-25T04:50:39;5.35;;;3.03;;
75537;SDS011;64121;48.666;8.114;2022-11-25T04:53:04;7.15;;;3.63;;
75537;SDS011;64121;48.666;8.114;2022-11-25T04:55:30;4.70;;;3.17;;
75537;SDS011;64121;48.666;8.114;2022-11-25T04:57:55;5.95;;;3.40;;
75537;SDS011;64121;48.666;8.114;2022-11-25T05:00:22;5.03;;;2.88;;
75537;SDS011;64121;48.666;8.114;2022-11-25T05:02:47;8.88;;;3.60;;
75537;SDS011;64121;48.666;8.114;2022-11-25T05:05:12;4.75;;;3.10;;
75537;SDS011;64121;48.666;8.114;2022-11-25T05:07:38;4.95;;;2.83;;
75537;SDS011;64121;48.666;8.114;2022-11-25T05:10:04;5.68;;;2.50;;
75537;SDS011;64121;48.666;8.114;2022-11-25T05:12:30;4.55;;;2.45;;
75537;SDS011;64121;48.666;8.114;2022-11-25T05:14:55;5.00;;;3.13;;
75537;SDS011;64121;48.666;8.114;2022-11-25T05:17:23;3.78;;;2.33;;
75537;SDS011;64121;48.666;8.114;2022-11-25T05:19:50;4.57;;;1.88;;
75537;SDS011;64121;48.666;8.114;2022-11-25T05:22:16;3.20;;;1.60;;
75537;SDS011;64121;48.666;8.114;2022-11-25T05:24:43;5.07;;;2.30;;
75537;SDS011;64121;48.666;8.114;2022-11-25T05:27:09;2.50;;;1.63;;
75537;SDS011;64121;48.666;8.114;2022-11-25T05:29:36;5.90;;;3.10;;
75537;SDS011;64121;48.666;8.114;2022-11-25T05:32:02;5.22;;;1.98;;
75537;SDS011;64121;48.666;8.114;2022-11-25T05:34:29;4.78;;;2.40;;
75537;SDS011;64121;48.666;8.114;2022-11-25T05:36:54;5.05;;;2.35;;
75537;SDS011;64121;48.666;8.114;2022-11-25T05:39:20;4.68;;;2.40;;
75537;SDS011;64121;48.666;8.114;2022-11-25T05:41:45;6.40;;;2.17;;
75537;SDS011;64121;48.666;8.114;2022-11-25T05:44:11;5.22;;;2.13;;
75537;SDS011;64121;48.666;8.114;2022-11-25T05:46:36;3.65;;;1.85;;
75537;SDS011;64121;48.666;8.114;2022-11-25T05:49:02;4.32;;;2.22;;
75537;SDS011;64121;48.666;8.114;2022-11-25T05:51:28;4.43;;;2.03;;
75537;SDS011;64121;48.666;8.114;2022-11-25T05:53:54;6.18;;;2.08;;
75537;SDS011;64121;48.666;8.114;2022-11-25T05:56:20;7.15;;;2.25;;
75537;SDS011;64121;48.666;8.114;2022-11-25T05:58:46;4.57;;;2.95;;
75537;SDS011;64121;48.666;8.114;2022-11-25T06:01:12;5.18;;;3.30;;
75537;SDS011;64121;48.666;8.114;2022-11-25T06:03:39;4.43;;;2.95;;
75537;SDS011;64121;48.666;8.114;2022-11-25T06:06:05;3.15;;;2.00;;
75537;SDS011;64121;48.666;8.114;2022-11-25T06:08:33;5.57;;;2.22;;
75537;SDS011;64121;48.666;8.114;2022-11-25T06:11:02;5.10;;;2.33;;
75537;SDS011;64121;48.666;8.114;2022-11-25T06:13:28;3.72;;;1.80;;
75537;SDS011;64121;48.666;8.114;2022-11-25T06:15:53;5.47;;;2.33;;
75537;SDS011;64121;48.666;8.114;2022-11-25T06:18:19;5.95;;;2.72;;
75537;SDS011;64121;48.666;8.114;2022-11-25T06:20:44;7.80;;;6.68;;
75537;SDS011;64121;48.666;8.114;2022-11-25T06:23:09;6.65;;;4.68;;
75537;SDS011;64121;48.666;8.114;2022-11-25T06:25:36;6.47;;;2.80;;
75537;SDS011;64121;48.666;8.114;2022-11-25T06:28:02;5.93;;;2.47;;
75537;SDS011;64121;48.666;8.114;2022-11-25T06:30:28;4.03;;;2.42;;
75537;SDS011;64121;48.666;8.114;2022-11-25T06:32:54;5.13;;;2.10;;
75537;SDS011;64121;48.666;8.114;2022-11-25T06:35:19;4.63;;;1.88;;
75537;SDS011;64121;48.666;8.114;2022-11-25T06:37:45;3.95;;;2.42;;
75537;SDS011;64121;48.666;8.114;2022-11-25T06:40:10;3.97;;;2.13;;
75537;SDS011;64121;48.666;8.114;2022-11-25T06:42:37;5.00;;;2.40;;
75537;SDS011;64121;48.666;8.114;2022-11-25T06:45:03;4.53;;;2.45;;
75537;SDS011;64121;48.666;8.114;2022-11-25T06:47:29;8.07;;;4.47;;
75537;SDS011;64121;48.666;8.114;2022-11-25T06:49:55;7.22;;;3.97;;
75537;SDS011;64121;48.666;8.114;2022-11-25T06:52:20;7.30;;;4.47;;
75537;SDS011;64121;48.666;8.114;2022-11-25T06:54:45;8.77;;;4.68;;
75537;SDS011;64121;48.666;8.114;2022-11-25T06:57:11;7.28;;;4.55;;
75537;SDS011;64121;48.666;8.114;2022-11-25T06:59:42;8.63;;;4.82;;
75537;SDS011;64121;48.666;8.114;2022-11-25T07:02:08;8.18;;;3.75;;
75537;SDS011;64121;48.666;8.114;2022-11-25T07:04:35;6.10;;;3.97;;
75537;SDS011;64121;48.666;8.114;2022-11-25T07:07:00;5.88;;;3.47;;
75537;SDS011;64121;48.666;8.114;2022-11-25T07:09:25;5.18;;;3.50;;
75537;SDS011;64121;48.666;8.114;2022-11-25T07:11:51;4.88;;;3.58;;
75537;SDS011;64121;48.666;8.114;2022-11-25T07:14:16;4.72;;;3.42;;
75537;SDS011;64121;48.666;8.114;2022-11-25T07:16:43;5.07;;;3.33;;
75537;SDS011;64121;48.666;8.114;2022-11-25T07:19:10;6.75;;;3.70;;
75537;SDS011;64121;48.666;8.114;2022-11-25T07:21:36;5.53;;;3.60;;
75537;SDS011;64121;48.666;8.114;2022-11-25T07:24:02;5.15;;;3.22;;
75537;SDS011;64121;48.666;8.114;2022-11-25T07:26:30;7.68;;;3.53;;
75537;SDS011;64121;48.666;8.114;2022-11-25T07:28:57;5.05;;;3.40;;
75537;SDS011;64121;48.666;8.114;2022-11-25T07:31:24;5.80;;;3.20;;
75537;SDS011;64121;48.666;8.114;2022-11-25T07:33:52;4.38;;;3.13;;
75537;SDS011;64121;48.666;8.114;2022-11-25T07:36:20;5.45;;;3.90;;
75537;SDS011;64121;48.666;8.114;2022-11-25T07:38:46;6.85;;;3.75;;
75537;SDS011;64121;48.666;8.114;2022-11-25T07:41:13;6.03;;;3.42;;
75537;SDS011;64121;48.666;8.114;2022-11-25T07:43:39;6.03;;;2.85;;
75537;SDS011;64121;48.666;8.114;2022-11-25T07:46:09;15.65;;;4.47;;
75537;SDS011;64121;48.666;8.114;2022-11-25T07:48:35;17.33;;;4.00;;
75537;SDS011;64121;48.666;8.114;2022-11-25T07:51:02;9.63;;;3.30;;
75537;SDS011;64121;48.666;8.114;2022-11-25T07:53:28;5.65;;;3.28;;
75537;SDS011;64121;48.666;8.114;2022-11-25T07:55:53;4.50;;;2.65;;
75537;SDS011;64121;48.666;8.114;2022-11-25T07:58:18;5.63;;;2.70;;
75537;SDS011;64121;48.666;8.114;2022-11-25T08:00:44;7.95;;;3.45;;
75537;SDS011;64121;48.666;8.114;2022-11-25T08:03:09;8.00;;;3.45;;
75537;SDS011;64121;48.666;8.114;2022-11-25T08:05:34;6.38;;;3.97;;
75537;SDS011;64121;48.666;8.114;2022-11-25T08:08:01;7.88;;;4.65;;
75537;SDS011;64121;48.666;8.114;2022-11-25T08:10:26;8.43;;;5.90;;
75537;SDS011;64121;48.666;8.114;2022-11-25T08:12:51;10.05;;;6.07;;
75537;SDS011;64121;48.666;8.114;2022-11-25T08:15:17;9.85;;;6.38;;
75537;SDS011;64121;48.666;8.114;2022-11-25T08:17:42;9.52;;;6.20;;
75537;SDS011;64121;48.666;8.114;2022-11-25T08:20:08;8.68;;;6.20;;
75537;SDS011;64121;48.666;8.114;2022-11-25T08:22:33;8.05;;;6.40;;
75537;SDS011;64121;48.666;8.114;2022-11-25T08:25:00;9.77;;;6.35;;
75537;SDS011;64121;48.666;8.114;2022-11-25T08:27:25;11.90;;;5.82;;
75537;SDS011;64121;48.666;8.114;2022-11-25T08:29:51;9.05;;;5.80;;
75537;SDS011;64121;48.666;8.114;2022-11-25T08:32:16;8.18;;;5.13;;
75537;SDS011;64121;48.666;8.114;2022-11-25T08:34:41;7.70;;;6.18;;
75537;SDS011;64121;48.666;8.114;2022-11-25T08:37:06;8.10;;;5.28;;
75537;SDS011;64121;48.666;8.114;2022-11-25T08:39:32;5.78;;;3.95;;
75537;SDS011;64121;48.666;8.114;2022-11-25T08:41:58;7.10;;;3.53;;
75537;SDS011;64121;48.666;8.114;2022-11-25T08:44:26;4.78;;;2.50;;
75537;SDS011;64121;48.666;8.114;2022-11-25T08:46:51;4.95;;;3.08;;
75537;SDS011;64121;48.666;8.114;2022-11-25T08:49:16;4.90;;;2.15;;
75537;SDS011;64121;48.666;8.114;2022-11-25T08:51:42;3.78;;;1.60;;
75537;SDS011;64121;48.666;8.114;2022-11-25T08:54:07;4.60;;;1.60;;
75537;SDS011;64121;48.666;8.114;2022-11-25T08:56:33;4.05;;;1.60;;
75537;SDS011;64121;48.666;8.114;2022-11-25T08:59:00;6.93;;;1.90;;
75537;SDS011;64121;48.666;8.114;2022-11-25T09:01:25;6.45;;;1.40;;
75537;SDS011;64121;48.666;8.114;2022-11-25T09:03:52;5.07;;;2.17;;
75537;SDS011;64121;48.666;8.114;2022-11-25T09:06:19;6.63;;;2.90;;
75537;SDS011;64121;48.666;8.114;2022-11-25T09:08:45;8.13;;;3.25;;
75537;SDS011;64121;48.666;8.114;2022-11-25T09:11:11;9.32;;;4.00;;
75537;SDS011;64121;48.666;8.114;2022-11-25T09:13:36;10.25;;;4.82;;
75537;SDS011;64121;48.666;8.114;2022-11-25T09:16:03;9.52;;;3.92;;
75537;SDS011;64121;48.666;8.114;2022-11-25T09:18:29;5.22;;;1.40;;
75537;SDS011;64121;48.666;8.114;2022-11-25T09:20:55;8.27;;;2.95;;
75537;SDS011;64121;48.666;8.114;2022-11-25T09:23:21;6.45;;;2.78;;
75537;SDS011;64121;48.666;8.114;2022-11-25T09:25:49;3.67;;;1.38;;
75537;SDS011;64121;48.666;8.114;2022-11-25T09:28:15;2.30;;;1.00;;
75537;SDS011;64121;48.666;8.114;2022-11-25T09:30:40;2.67;;;0.93;;
75537;SDS011;64121;48.666;8.114;2022-11-25T09:33:07;7.10;;;1.65;;
75537;SDS011;64121;48.666;8.114;2022-11-25T09:35:32;4.18;;;1.50;;
75537;SDS011;64121;48.666;8.114;2022-11-25T09:37:58;4.57;;;1.65;;
75537;SDS011;64121;48.666;8.114;2022-11-25T09:40:26;5.20;;;1.60;;
75537;SDS011;64121;48.666;8.114;2022-11-25T09:43:00;4.75;;;1.70;;
75537;SDS011;64121;48.666;8.114;2022-11-25T09:45:37;4.13;;;2.10;;
75537;SDS011;64121;48.666;8.114;2022-11-25T09:48:19;5.07;;;1.92;;
75537;SDS011;64121;48.666;8.114;2022-11-25T09:50:56;6.35;;;1.70;;
75537;SDS011;64121;48.666;8.114;2022-11-25T09:53:32;6.20;;;2.40;;
75537;SDS011;64121;48.666;8.114;2022-11-25T09:56:08;5.85;;;3.10;;
75537;SDS011;64121;48.666;8.114;2022-11-25T09:58:38;7.18;;;2.90;;
75537;SDS011;64121;48.666;8.114;2022-11-25T10:01:11;5.30;;;3.22;;
75537;SDS011;64121;48.666;8.114;2022-11-25T10:03:43;7.10;;;2.97;;
75537;SDS011;64121;48.666;8.114;2022-11-25T10:06:12;5.88;;;2.58;;
75537;SDS011;64121;48.666;8.114;2022-11-25T10:08:40;7.82;;;3.13;;
75537;SDS011;64121;48.666;8.114;2022-11-25T10:11:12;6.07;;;3.15;;
75537;SDS011;64121;48.666;8.114;2022-11-25T10:13:47;5.15;;;3.30;;
75537;SDS011;64121;48.666;8.114;2022-11-25T10:16:23;5.80;;;2.97;;
75537;SDS011;64121;48.666;8.114;2022-11-25T10:19:00;6.97;;;2.72;;
75537;SDS011;64121;48.666;8.114;2022-11-25T10:21:29;4.23;;;2.80;;
75537;SDS011;64121;48.666;8.114;2022-11-25T10:23:55;6.13;;;2.70;;
75537;SDS011;64121;48.666;8.114;2022-11-25T10:26:21;6.10;;;2.38;;
75537;SDS011;64121;48.666;8.114;2022-11-25T10:28:52;5.95;;;3.05;;
75537;SDS011;64121;48.666;8.114;2022-11-25T10:31:21;4.30;;;2.40;;
75537;SDS011;64121;48.666;8.114;2022-11-25T10:33:53;8.05;;;3.10;;
75537;SDS011;64121;48.666;8.114;2022-11-25T10:36:26;5.85;;;2.92;;
75537;SDS011;64121;48.666;8.114;2022-11-25T10:38:55;4.85;;;2.90;;
75537;SDS011;64121;48.666;8.114;2022-11-25T10:41:25;6.47;;;3.05;;
75537;SDS011;64121;48.666;8.114;2022-11-25T10:43:52;7.18;;;3.60;;
75537;SDS011;64121;48.666;8.114;2022-11-25T10:46:20;7.85;;;3.92;;
75537;SDS011;64121;48.666;8.114;2022-11-25T10:48:58;6.88;;;3.80;;
75537;SDS011;64121;48.666;8.114;2022-11-25T10:51:32;8.63;;;3.05;;
75537;SDS011;64121;48.666;8.114;2022-11-25T10:54:07;6.32;;;3.10;;
75537;SDS011;64121;48.666;8.114;2022-11-25T10:56:42;5.05;;;2.42;;
75537;SDS011;64121;48.666;8.114;2022-11-25T10:59:11;5.90;;;3.00;;
75537;SDS011;64121;48.666;8.114;2022-11-25T11:01:38;7.07;;;3.92;;
75537;SDS011;64121;48.666;8.114;2022-11-25T11:04:04;6.78;;;3.47;;
75537;SDS011;64121;48.666;8.114;2022-11-25T11:06:37;6.13;;;3.30;;
75537;SDS011;64121;48.666;8.114;2022-11-25T11:09:04;6.30;;;3.50;;
75537;SDS011;64121;48.666;8.114;2022-11-25T11:11:30;7.63;;;3.25;;
75537;SDS011;64121;48.666;8.114;2022-11-25T11:14:10;6.63;;;3.47;;
75537;SDS011;64121;48.666;8.114;2022-11-25T11:16:37;6.80;;;3.95;;
75537;SDS011;64121;48.666;8.114;2022-11-25T11:19:05;8.35;;;3.95;;
75537;SDS011;64121;48.666;8.114;2022-11-25T11:21:31;7.10;;;3.20;;
75537;SDS011;64121;48.666;8.114;2022-11-25T11:23:59;9.32;;;4.30;;
75537;SDS011;64121;48.666;8.114;2022-11-25T11:26:26;9.07;;;4.40;;
75537;SDS011;64121;48.666;8.114;2022-11-25T11:28:57;7.72;;;4.07;;
75537;SDS011;64121;48.666;8.114;2022-11-25T11:31:24;8.25;;;4.25;;
75537;SDS011;64121;48.666;8.114;2022-11-25T11:33:55;7.60;;;4.03;;
75537;SDS011;64121;48.666;8.114;2022-11-25T11:36:29;10.13;;;4.55;;
75537;SDS011;64121;48.666;8.114;2022-11-25T11:39:11;7.40;;;4.30;;
75537;SDS011;64121;48.666;8.114;2022-11-25T11:41:53;8.73;;;4.60;;
75537;SDS011;64121;48.666;8.114;2022-11-25T11:44:26;9.75;;;4.05;;
75537;SDS011;64121;48.666;8.114;2022-11-25T11:47:03;5.93;;;4.07;;
75537;SDS011;64121;48.666;8.114;2022-11-25T11:49:46;8.30;;;4.35;;
75537;SDS011;64121;48.666;8.114;2022-11-25T11:52:29;8.25;;;4.15;;
75537;SDS011;64121;48.666;8.114;2022-11-25T11:55:12;14.45;;;8.48;;
75537;SDS011;64121;48.666;8.114;2022-11-25T11:57:48;20.63;;;11.70;;
75537;SDS011;64121;48.666;8.114;2022-11-25T12:00:23;11.60;;;7.03;;
75537;SDS011;64121;48.666;8.114;2022-11-25T12:02:51;9.48;;;6.13;;
75537;SDS011;64121;48.666;8.114;2022-11-25T12:05:23;10.38;;;6.88;;
75537;SDS011;64121;48.666;8.114;2022-11-25T12:07:53;10.57;;;5.82;;
75537;SDS011;64121;48.666;8.114;2022-11-25T12:10:29;7.53;;;4.50;;
75537;SDS011;64121;48.666;8.114;2022-11-25T12:12:59;9.68;;;4.45;;
75537;SDS011;64121;48.666;8.114;2022-11-25T12:15:34;7.43;;;4.07;;
75537;SDS011;64121;48.666;8.114;2022-11-25T12:18:09;7.50;;;4.63;;
75537;SDS011;64121;48.666;8.114;2022-11-25T12:20:42;7.75;;;4.57;;
75537;SDS011;64121;48.666;8.114;2022-11-25T12:23:12;6.63;;;3.75;;
75537;SDS011;64121;48.666;8.114;2022-11-25T12:25:44;8.70;;;3.70;;
75537;SDS011;64121;48.666;8.114;2022-11-25T12:28:16;8.02;;;3.92;;
75537;SDS011;64121;48.666;8.114;2022-11-25T12:30:49;9.65;;;5.82;;
75537;SDS011;64121;48.666;8.114;2022-11-25T12:33:38;7.88;;;4.60;;
75537;SDS011;64121;48.666;8.114;2022-11-25T12:36:10;11.52;;;5.50;;
75537;SDS011;64121;48.666;8.114;2022-11-25T12:38:42;7.55;;;3.72;;
75537;SDS011;64121;48.666;8.114;2022-11-25T12:41:13;7.53;;;3.88;;
75537;SDS011;64121;48.666;8.114;2022-11-25T12:43:47;7.07;;;3.60;;
75537;SDS011;64121;48.666;8.114;2022-11-25T12:46:21;7.22;;;3.85;;
75537;SDS011;64121;48.666;8.114;2022-11-25T12:48:53;8.57;;;4.43;;
75537;SDS011;64121;48.666;8.114;2022-11-25T12:51:32;6.93;;;3.95;;
75537;SDS011;64121;48.666;8.114;2022-11-25T12:54:11;8.52;;;5.40;;
75537;SDS011;64121;48.666;8.114;2022-11-25T12:56:51;7.88;;;4.57;;
75537;SDS011;64121;48.666;8.114;2022-11-25T12:59:35;6.97;;;3.55;;
75537;SDS011;64121;48.666;8.114;2022-11-25T13:02:23;6.10;;;3.15;;
75537;SDS011;64121;48.666;8.114;2022-11-25T13:05:18;5.00;;;3.22;;
75537;SDS011;64121;48.666;8.114;2022-11-25T13:07:57;5.38;;;2.60;;
75537;SDS011;64121;48.666;8.114;2022-11-25T13:10:41;5.75;;;2.70;;
75537;SDS011;64121;48.666;8.114;2022-11-25T13:13:20;7.15;;;2.67;;
75537;SDS011;64121;48.666;8.114;2022-11-25T13:15:56;8.00;;;2.55;;
75537;SDS011;64121;48.666;8.114;2022-11-25T13:18:24;6.20;;;3.67;;
75537;SDS011;64121;48.666;8.114;2022-11-25T13:20:53;7.30;;;3.35;;
75537;SDS011;64121;48.666;8.114;2022-11-25T13:23:20;6.15;;;2.83;;
75537;SDS011;64121;48.666;8.114;2022-11-25T13:25:48;6.35;;;3.47;;
75537;SDS011;64121;48.666;8.114;2022-11-25T13:28:27;7.40;;;3.08;;
75537;SDS011;64121;48.666;8.114;2022-11-25T13:30:55;6.82;;;4.05;;
75537;SDS011;64121;48.666;8.114;2022-11-25T13:33:57;5.88;;;2.90;;
75537;SDS011;64121;48.666;8.114;2022-11-25T13:36:45;5.93;;;2.97;;
75537;SDS011;64121;48.666;8.114;2022-11-25T13:39:12;3.92;;;2.60;;
75537;SDS011;64121;48.666;8.114;2022-11-25T13:41:40;5.05;;;2.50;;
75537;SDS011;64121;48.666;8.114;2022-11-25T13:46:55;4.28;;;2.40;;
75537;SDS011;64121;48.666;8.114;2022-11-25T13:49:24;5.88;;;2.10;;
75537;SDS011;64121;48.666;8.114;2022-11-25T13:51:52;6.10;;;2.03;;
75537;SDS011;64121;48.666;8.114;2022-11-25T13:54:20;6.25;;;2.75;;
75537;SDS011;64121;48.666;8.114;2022-11-25T13:56:57;4.78;;;2.30;;
75537;SDS011;64121;48.666;8.114;2022-11-25T13:59:35;5.70;;;2.20;;
75537;SDS011;64121;48.666;8.114;2022-11-25T14:05:13;4.28;;;2.22;;
75537;SDS011;64121;48.666;8.114;2022-11-25T14:07:51;2.80;;;1.88;;
75537;SDS011;64121;48.666;8.114;2022-11-25T14:10:35;4.60;;;1.98;;
75537;SDS011;64121;48.666;8.114;2022-11-25T14:13:13;7.53;;;2.03;;
75537;SDS011;64121;48.666;8.114;2022-11-25T14:15:53;4.72;;;2.13;;
75537;SDS011;64121;48.666;8.114;2022-11-25T14:18:35;4.13;;;2.60;;
75537;SDS011;64121;48.666;8.114;2022-11-25T14:21:11;4.55;;;2.10;;
75537;SDS011;64121;48.666;8.114;2022-11-25T14:23:45;3.28;;;1.90;;
75537;SDS011;64121;48.666;8.114;2022-11-25T14:26:25;5.20;;;2.67;;
75537;SDS011;64121;48.666;8.114;2022-11-25T14:28:53;4.68;;;2.60;;
75537;SDS011;64121;48.666;8.114;2022-11-25T14:31:23;8.13;;;2.53;;
75537;SDS011;64121;48.666;8.114;2022-11-25T14:33:57;4.88;;;2.92;;
75537;SDS011;64121;48.666;8.114;2022-11-25T14:36:26;5.57;;;3.78;;
75537;SDS011;64121;48.666;8.114;2022-11-25T14:38:55;7.65;;;4.03;;
75537;SDS011;64121;48.666;8.114;2022-11-25T14:41:23;6.63;;;3.42;;
75537;SDS011;64121;48.666;8.114;2022-11-25T14:43:54;5.70;;;2.78;;
75537;SDS011;64121;48.666;8.114;2022-11-25T14:46:24;5.10;;;2.70;;
75537;SDS011;64121;48.666;8.114;2022-11-25T14:48:53;5.93;;;1.92;;
75537;SDS011;64121;48.666;8.114;2022-11-25T14:51:20;7.53;;;3.67;;
75537;SDS011;64121;48.666;8.114;2022-11-25T14:53:48;13.35;;;7.10;;
75537;SDS011;64121;48.666;8.114;2022-11-25T14:56:15;4.28;;;2.28;;
75537;SDS011;64121;48.666;8.114;2022-11-25T14:58:47;8.35;;;1.95;;
75537;SDS011;64121;48.666;8.114;2022-11-25T15:01:16;3.50;;;1.70;;
75537;SDS011;64121;48.666;8.114;2022-11-25T15:03:44;4.90;;;2.03;;
75537;SDS011;64121;48.666;8.114;2022-11-25T15:06:11;5.07;;;2.38;;